Time;durP1;ratioP1;P1;durP2;ratioP2;P2;SDS_P1;SDS_P2;PMS_P1;PMS_P2;Temp;Humidity;BMP_temperature;BMP_pressure;BME280_temperature;BME280_humidity;BME280_pressure;Samples;Min_cycle;Max_cycle;Signal;HPM_P1;HPM_P2
2023/05/21 00:03:40;;;;;;;1.00;0.70;;;;;;;19.01;54.90;101730.69;20914732;28;20440;-63
2023/05/21 00:13:42;;;;;;;0.97;0.87;;;;;;;19.00;55.06;101718.19;20913503;28;20059;-64
2023/05/21 00:23:44;;;;;;;1.13;0.80;;;;;;;18.99;54.82;101701.13;20914158;28;20049;-63
2023/05/21 00:33:45;;;;;;;1.45;0.77;;;;;;;18.98;55.02;101703.94;20914925;28;20069;-63
2023/05/21 00:43:47;;;;;;;1.15;0.70;;;;;;;18.98;55.19;101694.00;20912711;28;20081;-63
2023/05/21 00:53:51;;;;;;;1.63;1.15;;;;;;;18.98;54.87;101685.06;20900344;28;20053;-63
2023/05/21 01:03:56;;;;;;;0.80;0.80;;;;;;;18.98;55.02;101688.59;20910545;28;20069;-63
2023/05/21 01:13:58;;;;;;;0.63;0.60;;;;;;;18.96;55.13;101685.13;20910336;28;20080;-63
2023/05/21 01:24:01;;;;;;;0.95;0.60;;;;;;;18.97;55.21;101686.88;20907796;28;20053;-64
2023/05/21 01:34:04;;;;;;;1.20;1.10;;;;;;;18.95;55.31;101667.25;20907781;28;20132;-63
2023/05/21 01:44:07;;;;;;;0.70;0.70;;;;;;;18.87;55.31;101653.53;20890583;28;20061;-64
2023/05/21 01:54:09;;;;;;;0.75;0.60;;;;;;;18.95;55.31;101658.31;20892078;28;20151;-63
2023/05/21 02:04:10;;;;;;;0.65;0.65;;;;;;;18.93;55.65;101650.31;20907141;28;20092;-63
2023/05/21 02:14:12;;;;;;;1.13;0.77;;;;;;;18.92;55.69;101640.50;20905879;28;20145;-63
2023/05/21 02:24:15;;;;;;;1.13;0.80;;;;;;;18.91;55.68;101646.88;20905037;28;20496;-63
2023/05/21 02:34:19;;;;;;;0.98;0.88;;;;;;;18.85;55.73;101623.09;20904614;28;20080;-63
2023/05/21 02:44:22;;;;;;;1.00;0.90;;;;;;;18.90;55.83;101642.47;20902728;28;20061;-63
2023/05/21 02:54:24;;;;;;;0.77;0.70;;;;;;;18.90;55.99;101628.16;20893397;28;20056;-63
2023/05/21 03:04:27;;;;;;;1.00;0.90;;;;;;;18.90;56.01;101625.44;20884684;28;20103;-63
2023/05/21 03:14:29;;;;;;;1.58;1.00;;;;;;;18.89;55.93;101626.44;20902207;28;20045;-63
2023/05/21 03:24:32;;;;;;;0.88;0.88;;;;;;;18.87;55.98;101621.13;20882807;28;20129;-63
2023/05/21 03:34:35;;;;;;;1.25;0.82;;;;;;;18.87;56.13;101615.75;20883019;28;20563;-63
2023/05/21 03:44:37;;;;;;;0.75;0.70;;;;;;;18.87;56.09;101620.31;20898087;28;20562;-63
2023/05/21 03:54:56;;;;;;;1.20;0.80;;;;;;;18.86;55.97;101619.44;20834421;28;20136;-64
2023/05/21 04:04:57;;;;;;;1.08;0.70;;;;;;;18.85;56.24;101628.50;20815980;28;20391;-63
2023/05/21 04:15:01;;;;;;;0.88;0.88;;;;;;;18.84;56.23;101629.50;20816929;28;20050;-63
2023/05/21 04:25:03;;;;;;;0.80;0.77;;;;;;;18.84;56.28;101624.09;20800008;28;20057;-63
2023/05/21 04:35:09;;;;;;;0.80;0.80;;;;;;;18.84;56.26;101632.19;20808922;28;20041;-64
2023/05/21 04:45:11;;;;;;;1.20;0.98;;;;;;;18.83;56.25;101633.16;20837462;28;20053;-63
2023/05/21 04:55:17;;;;;;;1.23;1.00;;;;;;;18.84;56.13;101624.09;20907431;28;20052;-63
2023/05/21 05:05:19;;;;;;;0.70;0.70;;;;;;;18.82;56.30;101618.84;20910195;28;20083;-64
2023/05/21 05:15:21;;;;;;;0.70;0.70;;;;;;;18.83;56.36;101614.28;20909861;28;20049;-63
2023/05/21 05:25:23;;;;;;;1.45;1.10;;;;;;;18.77;56.14;101604.84;20909229;28;20080;-63
2023/05/21 05:35:25;;;;;;;0.80;0.80;;;;;;;18.86;56.24;101621.28;20891796;28;20521;-63
2023/05/21 05:45:27;;;;;;;0.80;0.80;;;;;;;18.86;55.94;101614.03;20895382;28;20382;-64
2023/05/21 05:55:30;;;;;;;2.10;1.00;;;;;;;18.86;56.17;101614.03;20906501;28;20045;-64
2023/05/21 06:05:32;;;;;;;0.85;0.80;;;;;;;18.86;56.27;101613.19;20906024;28;20524;-64
2023/05/21 06:15:34;;;;;;;2.08;0.85;;;;;;;18.86;56.01;101602.41;20905401;28;20186;-64
2023/05/21 06:25:36;;;;;;;0.98;0.80;;;;;;;18.88;56.34;101603.97;20905409;28;20045;-63
2023/05/21 06:35:39;;;;;;;0.70;0.70;;;;;;;18.90;56.30;101611.94;20905006;28;20049;-64
2023/05/21 06:45:43;;;;;;;1.63;0.80;;;;;;;18.91;56.42;101595.63;20871887;28;20049;-63
2023/05/21 06:56:08;;;;;;;1.00;0.77;;;;;;;18.92;56.60;101586.53;20902746;28;20151;-63
2023/05/21 07:06:13;;;;;;;1.35;0.95;;;;;;;18.93;56.66;101580.16;20901207;28;20041;-63
2023/05/21 07:16:16;;;;;;;0.70;0.70;;;;;;;18.94;56.38;101573.78;20900494;28;20049;-63
2023/05/21 07:26:18;;;;;;;0.75;0.70;;;;;;;18.96;56.34;101574.50;20900385;28;20049;-63
2023/05/21 07:36:20;;;;;;;1.30;1.15;;;;;;;18.98;56.20;101582.53;20883362;28;20076;-63
2023/05/21 07:46:22;;;;;;;1.75;0.90;;;;;;;18.98;56.59;101572.56;20889675;28;20067;-63
2023/05/21 07:56:28;;;;;;;1.08;0.90;;;;;;;19.00;56.70;101567.06;20898535;28;20057;-63
2023/05/21 08:06:32;;;;;;;1.40;0.98;;;;;;;19.01;56.61;101557.16;20904283;28;20459;-64
2023/05/21 08:16:35;;;;;;;1.30;0.85;;;;;;;19.04;56.90;101556.88;20914463;28;20076;-63
2023/05/21 08:26:37;;;;;;;1.40;0.98;;;;;;;19.06;56.91;101560.31;20913907;28;20049;-64
2023/05/21 08:36:41;;;;;;;1.02;0.80;;;;;;;19.08;56.94;101552.94;20913009;28;20731;-64
2023/05/21 08:47:00;;;;;;;1.02;0.90;;;;;;;19.10;56.99;101561.78;20899020;28;20557;-63
2023/05/21 08:57:02;;;;;;;1.40;0.80;;;;;;;19.11;56.80;101558.91;20895256;28;20436;-64
2023/05/21 09:07:08;;;;;;;1.20;1.00;;;;;;;19.15;56.87;101555.97;20877866;28;20045;-64
2023/05/21 09:17:30;;;;;;;1.42;1.00;;;;;;;19.18;57.04;101553.88;20888339;28;20045;-63
2023/05/21 09:27:41;;;;;;;1.02;0.90;;;;;;;19.12;57.03;101532.81;20908655;28;20516;-64
2023/05/21 09:37:47;;;;;;;1.25;0.98;;;;;;;19.20;56.93;101554.59;20900855;28;20049;-64
2023/05/21 09:47:50;;;;;;;1.27;0.90;;;;;;;19.21;57.01;101548.22;20891022;28;20041;-64
2023/05/21 09:57:52;;;;;;;0.85;0.80;;;;;;;19.20;57.09;101545.63;20906937;28;20482;-64
2023/05/21 10:08:00;;;;;;;1.08;0.90;;;;;;;19.25;57.01;101530.78;20907098;28;20516;-63
2023/05/21 10:18:02;;;;;;;0.90;0.70;;;;;;;19.27;57.28;101519.88;20906058;28;20037;-64
2023/05/21 10:28:05;;;;;;;3.08;1.23;;;;;;;19.25;57.34;101511.88;20905766;28;20045;-64
2023/05/21 10:38:08;;;;;;;1.42;0.80;;;;;;;19.33;57.22;101513.06;20892327;28;20081;-64
2023/05/21 10:48:32;;;;;;;1.17;1.00;;;;;;;19.37;57.30;101495.63;20903611;28;20509;-64
2023/05/21 10:58:49;;;;;;;1.08;0.98;;;;;;;19.42;57.23;101485.28;20901834;28;20053;-64
2023/05/21 11:08:54;;;;;;;0.82;0.70;;;;;;;19.45;57.25;101479.63;20901209;28;20658;-64
2023/05/21 11:18:56;;;;;;;0.98;0.95;;;;;;;19.49;57.25;101455.91;20901534;28;20105;-64
2023/05/21 11:29:03;;;;;;;1.45;1.20;;;;;;;19.50;56.93;101455.78;20900338;28;20057;-63
2023/05/21 11:39:21;;;;;;;1.10;0.80;;;;;;;19.54;57.26;101446.41;20886542;28;20045;-64
2023/05/21 11:49:22;;;;;;;1.00;0.90;;;;;;;19.55;57.13;101444.56;20900211;28;20045;-64
2023/05/21 11:59:24;;;;;;;1.60;1.20;;;;;;;19.57;57.07;101445.28;20898884;28;20128;-64
2023/05/21 12:09:26;;;;;;;1.40;0.93;;;;;;;19.59;56.82;101442.47;20898477;28;20280;-63
2023/05/21 12:19:31;;;;;;;1.13;0.90;;;;;;;19.60;56.67;101433.38;20899340;28;20131;-64
2023/05/21 12:29:35;;;;;;;1.85;1.00;;;;;;;19.61;56.77;101435.06;20898761;28;20049;-64
2023/05/21 12:39:47;;;;;;;1.10;1.00;;;;;;;19.62;56.83;101440.31;20888443;28;20053;-64
2023/05/21 12:49:50;;;;;;;1.10;1.00;;;;;;;19.60;56.61;101425.25;20898069;28;20048;-64
2023/05/21 12:59:56;;;;;;;0.98;0.90;;;;;;;19.64;56.64;101430.25;20912715;28;20053;-64
2023/05/21 13:09:58;;;;;;;1.55;1.10;;;;;;;19.65;56.58;101423.84;20893995;28;20104;-64
2023/05/21 13:20:12;;;;;;;0.80;0.80;;;;;;;19.65;56.53;101420.31;20910651;28;20584;-64
2023/05/21 13:30:14;;;;;;;1.42;1.10;;;;;;;19.58;56.49;101390.28;20909099;28;20056;-64
2023/05/21 13:40:15;;;;;;;1.10;1.00;;;;;;;19.65;56.47;101382.50;20896127;28;20071;-64
2023/05/21 13:50:17;;;;;;;1.50;1.33;;;;;;;19.65;56.32;101371.69;20908312;28;20527;-64
2023/05/21 14:00:19;;;;;;;1.00;0.90;;;;;;;19.56;56.48;101346.34;20906730;28;20659;-64
2023/05/21 14:10:20;;;;;;;1.05;0.90;;;;;;;19.63;56.64;101358.31;20906564;28;20408;-63
2023/05/21 14:20:22;;;;;;;0.85;0.85;;;;;;;19.61;56.58;101354.06;20906129;28;20390;-64
2023/05/21 14:30:24;;;;;;;1.42;1.10;;;;;;;19.62;56.70;101350.34;20896623;28;20139;-64
2023/05/21 14:40:25;;;;;;;1.20;1.10;;;;;;;19.62;56.37;101344.97;20896027;28;20048;-63
2023/05/21 14:50:27;;;;;;;0.85;0.80;;;;;;;19.64;56.37;101337.56;20904472;28;20057;-64
2023/05/21 15:00:29;;;;;;;0.95;0.90;;;;;;;19.64;56.23;101345.69;20903535;28;20044;-64
2023/05/21 15:10:31;;;;;;;1.10;1.00;;;;;;;19.64;56.03;101341.13;20902315;28;20091;-64
2023/05/21 15:20:32;;;;;;;1.20;1.10;;;;;;;19.65;56.18;101344.69;20899479;28;20041;-64
2023/05/21 15:30:34;;;;;;;0.93;0.90;;;;;;;19.64;55.83;101349.22;20888288;28;20140;-64
2023/05/21 15:40:39;;;;;;;0.88;0.75;;;;;;;19.64;55.78;101338.41;20900617;28;20578;-63
2023/05/21 15:50:41;;;;;;;0.85;0.85;;;;;;;19.63;56.03;101327.75;20899145;28;20103;-64
2023/05/21 16:00:43;;;;;;;0.82;0.80;;;;;;;19.63;55.86;101320.50;20899456;28;20418;-64
2023/05/21 16:10:45;;;;;;;0.88;0.80;;;;;;;19.62;55.58;101320.66;20899670;28;20045;-64
2023/05/21 16:20:46;;;;;;;0.77;0.77;;;;;;;19.61;55.52;101317.09;20899683;28;20071;-64
2023/05/21 16:30:48;;;;;;;0.98;0.88;;;;;;;19.60;55.75;101315.38;20894521;28;20140;-64
2023/05/21 16:40:49;;;;;;;0.60;0.60;;;;;;;19.59;55.61;101305.56;20913540;28;20125;-64
2023/05/21 16:50:51;;;;;;;0.70;0.70;;;;;;;19.58;55.55;101300.31;20913166;28;20053;-64
2023/05/21 17:00:53;;;;;;;0.70;0.70;;;;;;;19.56;55.45;101298.59;20911728;28;20067;-64
2023/05/21 17:10:54;;;;;;;0.82;0.80;;;;;;;19.55;55.31;101291.50;20911923;28;20077;-64
2023/05/21 17:20:57;;;;;;;1.17;0.90;;;;;;;19.54;55.66;101284.38;20911354;28;20055;-64
2023/05/21 17:31:00;;;;;;;0.80;0.80;;;;;;;19.54;55.60;101283.53;20900793;28;20095;-64
2023/05/21 17:41:02;;;;;;;0.80;0.80;;;;;;;19.53;55.76;101293.47;20908902;28;20092;-64
2023/05/21 17:51:03;;;;;;;1.08;1.00;;;;;;;19.52;56.27;101307.97;20891217;28;20409;-64
2023/05/21 18:01:05;;;;;;;0.90;0.90;;;;;;;19.52;56.40;101313.38;20907793;28;20053;-64
2023/05/21 18:11:07;;;;;;;1.15;1.05;;;;;;;19.50;56.48;101307.25;20907264;28;20057;-64
2023/05/21 18:21:09;;;;;;;1.02;0.93;;;;;;;19.49;56.47;101307.38;20904897;28;20137;-64
2023/05/21 18:31:11;;;;;;;1.30;1.20;;;;;;;19.48;56.64;101306.53;20890935;28;20059;-64
2023/05/21 18:41:12;;;;;;;1.15;1.05;;;;;;;19.47;56.60;101303.97;20904059;28;20056;-64
2023/05/21 18:51:14;;;;;;;1.45;1.10;;;;;;;19.47;56.75;101309.38;20903477;28;20051;-64
2023/05/21 19:01:16;;;;;;;1.27;1.17;;;;;;;19.46;56.88;101297.72;20903061;28;20482;-64
2023/05/21 19:11:19;;;;;;;1.30;1.20;;;;;;;19.44;56.81;101294.28;20902809;28;20057;-64
2023/05/21 19:21:20;;;;;;;1.60;1.20;;;;;;;19.44;56.79;101302.38;20900556;28;20057;-64
2023/05/21 19:31:22;;;;;;;1.15;1.05;;;;;;;19.44;57.11;101299.69;20892750;28;20053;-64
2023/05/21 19:41:25;;;;;;;1.20;1.10;;;;;;;19.44;57.19;101299.69;20901255;28;20052;-64
2023/05/21 19:51:27;;;;;;;1.20;1.10;;;;;;;19.44;57.30;101310.47;20899658;28;20080;-64
2023/05/21 20:01:34;;;;;;;1.50;1.20;;;;;;;19.44;57.26;101305.09;20904992;28;20140;-64
2023/05/21 20:11:36;;;;;;;1.10;1.00;;;;;;;19.43;57.58;101292.56;20915938;28;20151;-64
2023/05/21 20:21:37;;;;;;;1.50;1.40;;;;;;;19.43;57.72;101276.38;20912126;28;20041;-64
2023/05/21 20:31:39;;;;;;;1.30;1.20;;;;;;;19.41;57.87;101279.22;20906731;28;20072;-64
2023/05/21 20:41:43;;;;;;;1.30;1.20;;;;;;;19.42;57.85;101278.25;20914068;28;20493;-64
2023/05/21 20:51:45;;;;;;;1.93;1.30;;;;;;;19.34;57.99;101263.72;20913559;28;20056;-64
2023/05/21 21:01:47;;;;;;;1.63;1.50;;;;;;;19.40;58.32;101272.13;20912467;28;20148;-64
2023/05/21 21:11:48;;;;;;;1.67;1.50;;;;;;;19.40;58.67;101271.25;20910392;28;20052;-64
2023/05/21 21:21:50;;;;;;;1.52;1.42;;;;;;;19.38;59.02;101260.59;20895860;28;20397;-64
2023/05/21 21:31:52;;;;;;;2.55;2.10;;;;;;;19.38;59.28;101265.13;20910393;28;20429;-64
2023/05/21 21:41:53;;;;;;;2.40;2.00;;;;;;;19.37;59.60;101247.22;20909281;28;20087;-64
2023/05/21 21:51:56;;;;;;;2.10;1.90;;;;;;;19.36;60.16;101253.63;20908948;28;20049;-64
2023/05/21 22:01:58;;;;;;;2.15;1.95;;;;;;;19.35;60.07;101260.00;20908292;28;20464;-64
2023/05/21 22:12:06;;;;;;;1.98;1.88;;;;;;;19.35;60.13;101260.88;20907249;28;20124;-64
2023/05/21 22:22:08;;;;;;;2.35;2.15;;;;;;;19.26;60.24;101237.41;20895532;28;20045;-64
2023/05/21 22:32:10;;;;;;;2.60;2.28;;;;;;;19.33;60.53;101238.56;20905773;28;20425;-63
2023/05/21 22:42:12;;;;;;;2.00;1.80;;;;;;;19.32;60.37;101228.75;20904220;28;20072;-64
2023/05/21 22:52:15;;;;;;;3.10;2.20;;;;;;;19.32;60.65;101273.78;20904062;28;20053;-64
2023/05/21 23:02:17;;;;;;;3.10;2.80;;;;;;;19.32;61.05;101281.88;20902438;28;20416;-64
2023/05/21 23:12:18;;;;;;;2.92;2.50;;;;;;;19.31;60.85;101275.66;20902659;28;20551;-64
2023/05/21 23:22:20;;;;;;;2.80;2.50;;;;;;;19.31;60.87;101296.38;20870684;28;20053;-64
2023/05/21 23:32:22;;;;;;;3.03;2.60;;;;;;;19.30;60.94;101275.78;20901971;28;20056;-64
2023/05/21 23:42:24;;;;;;;2.90;2.53;;;;;;;19.28;61.22;101265.97;20899955;28;20060;-64
2023/05/21 23:52:26;;;;;;;3.10;2.80;;;;;;;19.28;61.04;101260.56;20900550;28;20095;-63
